Time;durP1;ratioP1;P1;durP2;ratioP2;P2;SDS_P1;SDS_P2;PMS_P1;PMS_P2;Temp;Humidity;BMP_temperature;BMP_pressure;BME280_temperature;BME280_humidity;BME280_pressure;Samples;Min_cycle;Max_cycle;Signal;HPM_P1;HPM_P2
2022/12/30 00:02:00;;;;;;;13.40;6.50;;;7.80;99.90;;;;;;5038890;28;20858;-76
2022/12/30 00:04:29;;;;;;;13.53;6.30;;;7.70;99.90;;;;;;5039118;28;20851;-76
2022/12/30 00:06:57;;;;;;;11.77;5.97;;;7.70;99.90;;;;;;5056526;28;20463;-77
2022/12/30 00:09:25;;;;;;;17.00;6.60;;;7.70;99.90;;;;;;5038665;28;20459;-77
2022/12/30 00:11:53;;;;;;;12.63;6.47;;;7.60;99.90;;;;;;5056732;28;20546;-77
2022/12/30 00:34:02;;;;;;;12.00;6.00;;;7.60;99.90;;;;;;5038481;28;20527;-76
2022/12/30 00:36:31;;;;;;;15.53;6.97;;;7.60;99.90;;;;;;5038321;28;20839;-75
2022/12/30 00:38:59;;;;;;;19.93;7.23;;;7.60;99.90;;;;;;5038137;28;20944;-77
2022/12/30 00:44:15;;;;;;;20.60;7.83;;;7.60;99.90;;;;;;5056796;28;20450;-77
2022/12/30 00:46:45;;;;;;;13.47;7.20;;;7.70;99.90;;;;;;5056171;28;20453;-76
2022/12/30 00:57:31;;;;;;;17.17;5.97;;;7.70;99.90;;;;;;5055788;28;20431;-76
2022/12/30 01:00:00;;;;;;;14.07;5.80;;;7.70;99.90;;;;;;5038080;28;20959;-76
2022/12/30 01:02:29;;;;;;;15.03;5.10;;;7.70;99.90;;;;;;5055621;28;20435;-76
2022/12/30 01:04:58;;;;;;;14.40;5.70;;;7.70;99.90;;;;;;5055511;28;20437;-76
2022/12/30 01:07:28;;;;;;;16.13;5.90;;;7.70;99.90;;;;;;5055416;28;20853;-77
2022/12/30 01:09:56;;;;;;;12.90;6.13;;;7.70;99.90;;;;;;5054317;28;20443;-75
2022/12/30 01:12:24;;;;;;;13.80;6.07;;;7.80;99.90;;;;;;5055612;28;20469;-75
2022/12/30 01:14:54;;;;;;;17.23;5.87;;;7.80;99.90;;;;;;5055384;28;20435;-75
2022/12/30 01:17:27;;;;;;;16.67;6.00;;;7.80;99.90;;;;;;5055690;28;20447;-75
2022/12/30 01:19:57;;;;;;;11.33;4.87;;;7.80;99.90;;;;;;5037467;28;20438;-74
2022/12/30 01:22:25;;;;;;;12.70;6.20;;;7.80;99.90;;;;;;5037264;28;20464;-75
2022/12/30 01:24:53;;;;;;;14.50;6.10;;;7.80;99.90;;;;;;5055422;28;20503;-75
2022/12/30 01:27:21;;;;;;;13.77;5.80;;;7.80;99.90;;;;;;5037223;28;20526;-75
2022/12/30 01:29:50;;;;;;;18.63;5.90;;;7.80;99.90;;;;;;5055052;28;20919;-75
2022/12/30 01:32:20;;;;;;;12.67;5.53;;;7.90;99.90;;;;;;5054929;28;20512;-75
2022/12/30 01:34:52;;;;;;;13.87;5.30;;;7.80;99.90;;;;;;5055109;28;20939;-75
2022/12/30 01:37:22;;;;;;;13.80;5.63;;;7.90;99.90;;;;;;5055655;28;20449;-76
2022/12/30 01:39:53;;;;;;;14.77;6.40;;;7.90;99.90;;;;;;5037309;28;20458;-76
2022/12/30 01:42:24;;;;;;;16.83;6.20;;;7.90;99.90;;;;;;5055503;28;20433;-76
2022/12/30 01:44:59;;;;;;;14.00;6.00;;;7.90;99.90;;;;;;5055518;28;20972;-76
2022/12/30 01:47:40;;;;;;;14.47;5.63;;;7.90;99.90;;;;;;5037255;28;20440;-76
2022/12/30 01:50:19;;;;;;;23.73;6.50;;;7.90;99.90;;;;;;5037097;28;20454;-76
2022/12/30 01:52:53;;;;;;;14.67;5.73;;;7.90;99.90;;;;;;5036909;28;20472;-76
2022/12/30 01:55:26;;;;;;;15.80;5.80;;;8.00;99.90;;;;;;5054819;28;20485;-76
2022/12/30 01:57:56;;;;;;;11.00;5.97;;;8.00;99.90;;;;;;5055049;28;20421;-76
2022/12/30 02:00:24;;;;;;;14.03;6.30;;;8.00;99.90;;;;;;5054849;28;20968;-76
2022/12/30 02:03:00;;;;;;;18.90;6.87;;;8.00;99.90;;;;;;5054833;28;20451;-76
2022/12/30 02:05:31;;;;;;;15.23;5.77;;;8.00;99.90;;;;;;5055074;28;20457;-76
2022/12/30 02:08:07;;;;;;;14.67;5.93;;;8.00;99.90;;;;;;5054819;28;20732;-75
2022/12/30 02:10:38;;;;;;;14.53;6.20;;;8.00;99.90;;;;;;5055027;28;20421;-76
2022/12/30 02:13:07;;;;;;;14.10;6.30;;;8.00;99.90;;;;;;5054573;28;20550;-76
2022/12/30 02:15:46;;;;;;;12.77;6.23;;;8.00;99.90;;;;;;5036372;28;20974;-76
2022/12/30 02:18:24;;;;;;;11.07;6.13;;;8.00;99.90;;;;;;5054631;28;20430;-75
2022/12/30 02:21:15;;;;;;;13.90;6.83;;;8.00;99.90;;;;;;5036243;28;20501;-76
2022/12/30 02:24:39;;;;;;;13.60;6.10;;;8.00;99.90;;;;;;5036851;28;20634;-76
2022/12/30 02:27:18;;;;;;;11.63;6.20;;;8.00;99.90;;;;;;5036229;28;20434;-75
2022/12/30 02:30:07;;;;;;;14.93;7.07;;;8.00;99.90;;;;;;5054324;28;20440;-75
2022/12/30 02:32:56;;;;;;;13.43;6.67;;;7.90;99.90;;;;;;5036079;28;20504;-76
2022/12/30 02:35:31;;;;;;;14.43;6.80;;;8.00;99.90;;;;;;5054292;28;20458;-75
2022/12/30 02:38:06;;;;;;;14.00;6.83;;;7.90;99.90;;;;;;5053911;28;20483;-76
2022/12/30 02:46:12;;;;;;;18.03;7.03;;;7.90;99.90;;;;;;5053695;28;20461;-75
2022/12/30 02:48:46;;;;;;;14.63;6.73;;;7.90;99.90;;;;;;5035812;28;20450;-75
2022/12/30 02:54:02;;;;;;;14.17;6.80;;;7.90;99.90;;;;;;5035785;28;20472;-75
2022/12/30 02:56:30;;;;;;;15.63;6.83;;;7.80;99.90;;;;;;5053660;28;20460;-76
2022/12/30 03:04:50;;;;;;;11.87;6.20;;;7.80;99.90;;;;;;5053551;28;20852;-75
2022/12/30 03:07:28;;;;;;;13.50;5.60;;;7.80;99.90;;;;;;5035661;28;20446;-75
2022/12/30 03:12:59;;;;;;;15.53;5.73;;;7.80;99.90;;;;;;5053385;28;20457;-77
2022/12/30 03:15:33;;;;;;;12.43;5.53;;;7.70;99.90;;;;;;5035738;28;20863;-75
2022/12/30 03:18:03;;;;;;;14.13;6.57;;;7.70;99.90;;;;;;5053962;28;20516;-76
2022/12/30 03:20:33;;;;;;;12.30;5.57;;;7.70;99.90;;;;;;5035504;28;20961;-75
2022/12/30 03:28:37;;;;;;;13.90;6.20;;;7.60;99.90;;;;;;5053429;28;20890;-76
2022/12/30 03:31:10;;;;;;;17.60;6.37;;;7.60;99.90;;;;;;5053150;28;20984;-76
2022/12/30 03:33:42;;;;;;;16.07;6.77;;;7.60;99.90;;;;;;5056085;28;20467;-76
2022/12/30 03:36:16;;;;;;;15.13;6.67;;;7.60;99.90;;;;;;5039517;28;20468;-76
2022/12/30 03:38:49;;;;;;;15.03;6.20;;;7.60;99.90;;;;;;5057572;28;20455;-76
2022/12/30 03:41:19;;;;;;;15.10;6.67;;;7.60;99.90;;;;;;5057528;28;20941;-76
2022/12/30 03:43:48;;;;;;;18.83;7.07;;;7.60;99.90;;;;;;5057403;28;20493;-76
2022/12/30 03:46:16;;;;;;;14.57;7.83;;;7.60;99.90;;;;;;5057056;28;20462;-76
2022/12/30 03:48:44;;;;;;;14.40;6.67;;;7.60;99.90;;;;;;5057275;28;20481;-76
2022/12/30 03:51:13;;;;;;;22.20;7.03;;;7.60;99.90;;;;;;5056965;28;20532;-76
2022/12/30 03:53:42;;;;;;;14.93;6.90;;;7.60;99.90;;;;;;5057176;28;20471;-76
2022/12/30 03:56:10;;;;;;;15.53;7.40;;;7.50;99.90;;;;;;5039095;28;20476;-76
2022/12/30 03:58:38;;;;;;;19.30;6.90;;;7.50;99.90;;;;;;5039055;28;20493;-77
2022/12/30 04:01:06;;;;;;;13.53;7.17;;;7.50;99.90;;;;;;5039057;28;20448;-75
2022/12/30 04:03:34;;;;;;;12.47;6.50;;;7.50;99.90;;;;;;5038929;28;20511;-76
2022/12/30 04:06:02;;;;;;;21.30;7.70;;;7.50;99.90;;;;;;5056670;28;20484;-76
2022/12/30 04:08:32;;;;;;;15.90;7.13;;;7.50;99.90;;;;;;5038936;28;20799;-76
2022/12/30 04:11:00;;;;;;;15.00;6.57;;;7.40;99.90;;;;;;5038718;28;20459;-76
2022/12/30 04:13:28;;;;;;;17.73;8.40;;;7.40;99.90;;;;;;5038567;28;20836;-76
2022/12/30 04:15:57;;;;;;;15.40;8.10;;;7.40;99.90;;;;;;5056505;28;20874;-76
2022/12/30 04:18:25;;;;;;;17.30;6.73;;;7.40;99.90;;;;;;5038715;28;20440;-76
2022/12/30 04:20:53;;;;;;;18.33;6.97;;;7.40;99.90;;;;;;5038614;28;20439;-76
2022/12/30 04:23:21;;;;;;;15.37;7.20;;;7.30;99.90;;;;;;5038583;28;20452;-76
2022/12/30 04:25:51;;;;;;;17.10;7.40;;;7.40;99.90;;;;;;5056308;28;20524;-76
2022/12/30 04:28:19;;;;;;;17.40;6.67;;;7.30;99.90;;;;;;5038612;28;20447;-77
2022/12/30 04:30:49;;;;;;;15.77;7.20;;;7.30;99.90;;;;;;5056462;28;20430;-76
2022/12/30 04:33:17;;;;;;;14.20;7.53;;;7.30;99.90;;;;;;5056482;28;20463;-76
2022/12/30 04:35:45;;;;;;;11.43;6.73;;;7.20;99.90;;;;;;5038371;28;20470;-76
2022/12/30 04:38:13;;;;;;;12.33;6.43;;;7.20;99.90;;;;;;5038330;28;20498;-76
2022/12/30 04:40:41;;;;;;;13.53;6.50;;;7.20;99.90;;;;;;5056138;28;20473;-76
2022/12/30 04:43:11;;;;;;;12.60;6.83;;;7.10;99.90;;;;;;5038177;28;20506;-76
2022/12/30 04:45:39;;;;;;;9.37;6.40;;;7.10;99.90;;;;;;5056143;28;20490;-77
2022/12/30 04:48:07;;;;;;;15.27;7.37;;;7.10;99.90;;;;;;5055972;28;20941;-76
2022/12/30 04:50:35;;;;;;;15.37;7.20;;;7.10;99.90;;;;;;5037902;28;20451;-76
2022/12/30 04:53:03;;;;;;;15.70;6.97;;;7.00;99.90;;;;;;5056064;28;20964;-76
2022/12/30 04:55:31;;;;;;;19.70;7.40;;;7.00;99.90;;;;;;5041784;28;20466;-76
2022/12/30 04:57:59;;;;;;;17.93;7.80;;;7.00;99.90;;;;;;5060028;28;20826;-77
2022/12/30 05:00:29;;;;;;;14.80;7.47;;;6.90;99.90;;;;;;5059393;28;20431;-76
2022/12/30 05:02:57;;;;;;;13.80;7.17;;;6.90;99.90;;;;;;5039514;28;20431;-76
2022/12/30 05:05:26;;;;;;;17.70;7.50;;;6.90;99.90;;;;;;5055977;28;20986;-77
2022/12/30 05:07:54;;;;;;;15.00;7.50;;;6.90;99.90;;;;;;5037760;28;20955;-76
2022/12/30 05:10:22;;;;;;;16.80;6.80;;;6.80;99.90;;;;;;5037759;28;20513;-76
2022/12/30 05:12:50;;;;;;;13.43;6.67;;;6.80;99.90;;;;;;5055537;28;20446;-76
2022/12/30 05:15:18;;;;;;;10.80;6.87;;;6.80;99.90;;;;;;5038325;28;20511;-76
2022/12/30 05:17:48;;;;;;;14.30;7.20;;;6.70;99.90;;;;;;5037558;28;20965;-76
2022/12/30 05:20:16;;;;;;;16.40;7.43;;;6.70;99.90;;;;;;5037541;28;20455;-76
2022/12/30 05:22:44;;;;;;;11.30;7.13;;;6.70;99.90;;;;;;5037507;28;20450;-76
2022/12/30 05:27:57;;;;;;;15.10;6.80;;;6.70;99.90;;;;;;5055632;28;20512;-76
2022/12/30 05:30:26;;;;;;;11.70;6.90;;;6.60;99.90;;;;;;5055313;28;20443;-76
2022/12/30 05:32:55;;;;;;;13.03;7.20;;;6.60;99.90;;;;;;5037311;28;20552;-76
2022/12/30 05:35:23;;;;;;;14.23;7.70;;;6.50;99.90;;;;;;5037341;28;20494;-76
2022/12/30 05:37:51;;;;;;;16.90;7.67;;;6.50;99.90;;;;;;5055577;28;20533;-76
2022/12/30 05:40:20;;;;;;;16.80;7.60;;;6.50;99.90;;;;;;5037291;28;20454;-76
2022/12/30 05:42:48;;;;;;;13.03;7.90;;;6.50;99.90;;;;;;5055059;28;20427;-76
2022/12/30 05:45:16;;;;;;;16.10;7.87;;;6.50;99.90;;;;;;5055123;28;20493;-76
2022/12/30 05:47:44;;;;;;;13.90;7.47;;;6.40;99.90;;;;;;5036854;28;20501;-76
2022/12/30 05:50:13;;;;;;;11.30;6.63;;;6.40;99.90;;;;;;5054736;28;20864;-76
2022/12/30 05:52:41;;;;;;;13.80;7.00;;;6.40;99.90;;;;;;5055145;28;20455;-76
2022/12/30 05:55:10;;;;;;;15.50;8.03;;;6.40;99.90;;;;;;5054157;28;20470;-76
2022/12/30 05:57:38;;;;;;;12.30;7.20;;;6.30;99.90;;;;;;5054658;28;20488;-76
2022/12/30 06:00:07;;;;;;;16.97;8.00;;;6.30;99.90;;;;;;5054650;28;20507;-76
2022/12/30 06:02:35;;;;;;;19.20;9.07;;;6.30;99.90;;;;;;5054665;28;20482;-76
2022/12/30 06:05:08;;;;;;;15.10;7.37;;;6.30;99.90;;;;;;5054655;28;20794;-76
2022/12/30 06:07:38;;;;;;;16.20;7.87;;;6.30;99.90;;;;;;5036622;28;20538;-76
2022/12/30 06:10:08;;;;;;;19.27;8.13;;;6.30;99.90;;;;;;5054422;28;20471;-76
2022/12/30 06:12:36;;;;;;;14.63;7.43;;;6.30;99.90;;;;;;5054668;28;20434;-76
2022/12/30 06:15:05;;;;;;;14.77;7.57;;;6.20;99.90;;;;;;5054159;28;20983;-76
2022/12/30 06:17:33;;;;;;;18.70;8.10;;;6.20;99.90;;;;;;5054409;28;20434;-76
2022/12/30 06:20:01;;;;;;;13.23;7.63;;;6.20;99.90;;;;;;5036321;28;20459;-76
2022/12/30 06:22:29;;;;;;;14.40;7.57;;;6.20;99.90;;;;;;5036248;28;20450;-76
2022/12/30 06:24:59;;;;;;;14.50;7.67;;;6.20;99.90;;;;;;5054290;28;20431;-76
2022/12/30 06:27:27;;;;;;;16.13;7.90;;;6.20;99.90;;;;;;5036228;28;20448;-76
2022/12/30 06:29:55;;;;;;;13.47;6.83;;;6.20;99.90;;;;;;5053978;28;20469;-76
2022/12/30 06:32:23;;;;;;;15.10;7.97;;;6.20;99.90;;;;;;5054297;28;20445;-76
2022/12/30 06:34:51;;;;;;;12.83;7.17;;;6.10;99.90;;;;;;5053760;28;20829;-76
2022/12/30 06:37:19;;;;;;;15.37;7.77;;;6.10;99.90;;;;;;5054406;28;20440;-76
2022/12/30 06:39:47;;;;;;;15.87;7.03;;;6.10;99.90;;;;;;5036056;28;20446;-76
2022/12/30 06:42:16;;;;;;;16.50;7.30;;;6.10;99.90;;;;;;5054139;28;20438;-76
2022/12/30 06:44:44;;;;;;;14.50;6.80;;;6.10;99.90;;;;;;5054014;28;20429;-76
2022/12/30 06:47:12;;;;;;;13.47;7.40;;;6.10;99.90;;;;;;5053947;28;20799;-76
2022/12/30 06:49:40;;;;;;;19.67;7.57;;;6.10;99.90;;;;;;5053564;28;20496;-76
2022/12/30 06:52:08;;;;;;;13.87;6.87;;;6.00;99.90;;;;;;5035762;28;20821;-76
2022/12/30 06:54:36;;;;;;;18.93;7.87;;;6.00;99.90;;;;;;5053884;28;20467;-76
2022/12/30 06:57:05;;;;;;;14.63;6.20;;;6.00;99.90;;;;;;5053616;28;20434;-76
2022/12/30 06:59:34;;;;;;;18.50;7.73;;;6.00;99.90;;;;;;5035798;28;20439;-76
2022/12/30 07:02:02;;;;;;;13.40;6.53;;;6.00;99.90;;;;;;5053499;28;20434;-76
2022/12/30 07:04:30;;;;;;;16.50;6.33;;;6.00;99.90;;;;;;5035648;28;20561;-76
2022/12/30 07:06:59;;;;;;;16.70;6.43;;;6.00;99.90;;;;;;5052650;28;20454;-76
2022/12/30 07:09:27;;;;;;;12.67;5.90;;;6.00;99.90;;;;;;5053431;28;20442;-76
2022/12/30 07:11:55;;;;;;;12.17;5.33;;;5.90;99.90;;;;;;5053422;28;20510;-76
2022/12/30 07:14:23;;;;;;;15.20;6.17;;;5.90;99.90;;;;;;5053488;28;20442;-76
2022/12/30 07:16:52;;;;;;;14.67;5.90;;;5.90;99.90;;;;;;5053202;28;20847;-76
2022/12/30 07:19:21;;;;;;;15.33;5.40;;;6.00;99.90;;;;;;5053201;28;20460;-76
2022/12/30 07:21:49;;;;;;;9.60;4.70;;;6.00;99.90;;;;;;5035387;28;20443;-76
2022/12/30 07:24:17;;;;;;;14.93;5.40;;;6.00;99.90;;;;;;5035414;28;20553;-76
2022/12/30 07:26:45;;;;;;;11.83;4.97;;;6.00;99.90;;;;;;5053385;28;20453;-76
2022/12/30 07:29:14;;;;;;;12.90;6.60;;;6.00;99.90;;;;;;5053310;28;20954;-76
2022/12/30 07:31:42;;;;;;;11.77;5.37;;;6.00;99.90;;;;;;5053397;28;20844;-76
2022/12/30 07:34:12;;;;;;;17.23;6.30;;;6.00;99.90;;;;;;5035288;28;20883;-76
2022/12/30 07:36:40;;;;;;;13.53;4.87;;;6.00;99.90;;;;;;5052907;28;20995;-76
2022/12/30 07:39:08;;;;;;;13.57;4.77;;;6.00;99.90;;;;;;5053325;28;20442;-76
2022/12/30 07:41:36;;;;;;;13.43;5.00;;;6.00;99.90;;;;;;5035200;28;20460;-76
2022/12/30 07:44:10;;;;;;;13.90;4.93;;;6.00;99.90;;;;;;5035112;28;20429;-76
2022/12/30 07:46:38;;;;;;;13.97;6.03;;;5.90;99.90;;;;;;5052943;28;20460;-76
2022/12/30 07:49:06;;;;;;;13.20;6.03;;;5.90;99.90;;;;;;5053224;28;20441;-76
2022/12/30 07:51:36;;;;;;;13.93;5.67;;;5.90;99.90;;;;;;5052886;28;20442;-76
2022/12/30 07:54:04;;;;;;;14.53;5.10;;;5.90;99.90;;;;;;5035114;28;20556;-76
2022/12/30 07:56:35;;;;;;;14.30;6.47;;;6.00;99.90;;;;;;5052756;28;20485;-77
2022/12/30 07:59:03;;;;;;;16.47;8.20;;;5.90;99.90;;;;;;5052879;28;20957;-76
2022/12/30 08:01:31;;;;;;;16.47;7.40;;;5.90;99.90;;;;;;5052789;28;20950;-77
2022/12/30 08:04:00;;;;;;;18.63;9.97;;;5.90;99.90;;;;;;5053423;28;20895;-76
2022/12/30 08:06:49;;;;;;;13.57;6.07;;;5.90;99.90;;;;;;5052770;28;20477;-76
2022/12/30 08:09:17;;;;;;;13.03;7.80;;;5.90;99.90;;;;;;5034969;28;20450;-76
2022/12/30 08:11:45;;;;;;;16.50;5.93;;;5.90;99.90;;;;;;5052950;28;20447;-77
2022/12/30 08:14:13;;;;;;;13.47;6.20;;;5.90;99.90;;;;;;5052766;28;20438;-76
2022/12/30 08:16:41;;;;;;;14.23;5.83;;;5.90;99.90;;;;;;5052829;28;20484;-76
2022/12/30 08:19:09;;;;;;;9.50;5.70;;;5.90;99.90;;;;;;5036580;28;20453;-76
2022/12/30 08:21:38;;;;;;;18.10;5.70;;;5.90;99.90;;;;;;5038564;28;20545;-76
2022/12/30 08:24:09;;;;;;;20.83;7.77;;;5.90;99.90;;;;;;5057026;28;20492;-76
2022/12/30 08:26:37;;;;;;;14.53;6.90;;;5.90;99.90;;;;;;5056528;28;20456;-76
2022/12/30 08:29:05;;;;;;;14.23;5.47;;;6.00;99.90;;;;;;5038489;28;20450;-76
2022/12/30 08:31:33;;;;;;;14.70;6.60;;;6.00;99.90;;;;;;5056579;28;20450;-76
2022/12/30 08:34:01;;;;;;;14.70;6.10;;;6.00;99.90;;;;;;5056179;28;20445;-76
2022/12/30 08:36:30;;;;;;;17.07;6.13;;;6.00;99.90;;;;;;5056048;28;20523;-76
2022/12/30 08:39:01;;;;;;;13.10;5.20;;;6.00;99.90;;;;;;5056440;28;20939;-76
2022/12/30 08:41:32;;;;;;;15.70;5.97;;;6.00;99.90;;;;;;5038289;28;20548;-76
2022/12/30 08:44:02;;;;;;;19.20;6.27;;;6.00;99.90;;;;;;5056265;28;20792;-76
2022/12/30 08:46:33;;;;;;;18.23;5.00;;;6.10;99.90;;;;;;5055927;28;20469;-76
2022/12/30 08:49:01;;;;;;;11.70;4.40;;;6.10;99.90;;;;;;5055855;28;20927;-76
2022/12/30 08:51:30;;;;;;;18.60;5.10;;;6.10;99.90;;;;;;5037952;28;20460;-76
2022/12/30 08:53:59;;;;;;;12.83;6.30;;;6.10;99.90;;;;;;5037983;28;20835;-76
2022/12/30 08:56:32;;;;;;;14.17;4.53;;;6.10;99.90;;;;;;5055738;28;20469;-76
2022/12/30 08:59:00;;;;;;;12.20;4.70;;;6.20;99.90;;;;;;5055745;28;20878;-76
2022/12/30 09:01:30;;;;;;;13.67;4.77;;;6.20;99.90;;;;;;5056010;28;20768;-76
2022/12/30 09:03:59;;;;;;;13.43;4.60;;;6.20;99.90;;;;;;5055580;28;20848;-76
2022/12/30 09:06:28;;;;;;;9.87;4.50;;;6.20;99.90;;;;;;5055622;28;20535;-76
2022/12/30 09:08:59;;;;;;;10.40;4.27;;;6.20;99.90;;;;;;5037573;28;20453;-76
2022/12/30 09:11:31;;;;;;;10.20;4.03;;;6.30;99.90;;;;;;5037775;28;20447;-76
2022/12/30 09:14:01;;;;;;;13.10;5.23;;;6.30;99.90;;;;;;5037927;28;20435;-76
2022/12/30 09:16:30;;;;;;;15.07;4.07;;;6.30;99.90;;;;;;5055423;28;20470;-76
2022/12/30 09:19:00;;;;;;;12.83;4.60;;;6.30;99.90;;;;;;5037468;28;20956;-76
2022/12/30 09:21:29;;;;;;;10.30;4.00;;;6.30;99.90;;;;;;5055379;28;20446;-76
2022/12/30 09:23:57;;;;;;;10.67;4.20;;;6.40;99.90;;;;;;5055600;28;20469;-76
2022/12/30 09:26:27;;;;;;;11.57;3.93;;;6.40;99.90;;;;;;5055493;28;20553;-76
2022/12/30 09:28:57;;;;;;;12.97;4.20;;;6.50;99.90;;;;;;5055787;28;20485;-76
2022/12/30 09:31:32;;;;;;;15.20;4.53;;;6.40;99.90;;;;;;5036601;28;20438;-76
2022/12/30 09:34:00;;;;;;;10.90;4.17;;;6.50;99.90;;;;;;5037323;28;20851;-76
2022/12/30 09:36:28;;;;;;;14.50;4.57;;;6.50;99.90;;;;;;5055873;28;20524;-76
2022/12/30 09:38:56;;;;;;;12.60;4.80;;;6.50;99.90;;;;;;5055092;28;20456;-76
2022/12/30 09:44:37;;;;;;;11.30;5.00;;;6.50;99.90;;;;;;5007825;28;20481;-76
2022/12/30 09:47:13;;;;;;;16.17;7.20;;;6.60;99.90;;;;;;5039767;28;20443;-76
2022/12/30 09:49:50;;;;;;;12.93;4.50;;;6.60;99.90;;;;;;5057474;28;20490;-76
2022/12/30 09:52:24;;;;;;;9.93;3.90;;;6.60;99.90;;;;;;5056635;28;20431;-76
2022/12/30 09:54:55;;;;;;;9.57;3.73;;;6.70;99.90;;;;;;5037218;28;20438;-76
2022/12/30 09:57:34;;;;;;;13.70;4.43;;;6.70;99.90;;;;;;5037054;28;20940;-76
2022/12/30 10:00:08;;;;;;;9.97;3.90;;;6.70;99.90;;;;;;5054909;28;20446;-76
2022/12/30 10:03:01;;;;;;;14.53;4.30;;;6.80;99.90;;;;;;5054807;28;20421;-76
2022/12/30 10:05:55;;;;;;;8.07;3.57;;;6.80;99.90;;;;;;5036664;28;20462;-76
2022/12/30 10:08:35;;;;;;;8.97;3.73;;;6.90;99.90;;;;;;5054858;28;20436;-76
2022/12/30 10:11:13;;;;;;;7.73;3.23;;;6.90;99.90;;;;;;5054450;28;20506;-76
2022/12/30 10:13:49;;;;;;;9.67;3.30;;;6.90;99.90;;;;;;5054715;28;20424;-76
2022/12/30 10:16:26;;;;;;;8.90;3.27;;;6.90;99.90;;;;;;5036369;28;20483;-76
2022/12/30 10:19:10;;;;;;;11.30;4.20;;;6.90;99.90;;;;;;5036279;28;20434;-76
2022/12/30 10:21:50;;;;;;;9.13;3.50;;;7.00;99.90;;;;;;5054289;28;20431;-76
2022/12/30 10:24:30;;;;;;;8.77;3.60;;;7.00;99.90;;;;;;5054592;28;20756;-76
2022/12/30 10:27:05;;;;;;;10.20;3.57;;;7.00;99.90;;;;;;5054116;28;20463;-76
2022/12/30 10:29:37;;;;;;;9.00;3.43;;;7.10;99.90;;;;;;5036258;28;21002;-76
2022/12/30 10:32:17;;;;;;;8.80;3.50;;;7.10;99.90;;;;;;5054372;28;20422;-76
2022/12/30 10:34:46;;;;;;;11.23;3.70;;;7.10;99.90;;;;;;5054278;28;20419;-77
2022/12/30 10:37:19;;;;;;;7.83;2.80;;;7.10;99.90;;;;;;5036014;28;20496;-76
2022/12/30 10:39:49;;;;;;;8.27;3.40;;;7.20;99.90;;;;;;5036048;28;20439;-76
2022/12/30 10:42:47;;;;;;;11.00;3.73;;;7.20;99.90;;;;;;5053771;28;20517;-76
2022/12/30 10:45:32;;;;;;;14.27;7.10;;;7.20;99.90;;;;;;5036021;28;20828;-76
2022/12/30 10:48:16;;;;;;;10.50;3.47;;;7.20;99.90;;;;;;5035953;28;20443;-76
2022/12/30 10:50:47;;;;;;;8.53;3.30;;;7.20;99.90;;;;;;5053864;28;20450;-76
2022/12/30 10:53:18;;;;;;;9.40;3.30;;;7.30;99.90;;;;;;5054316;28;20902;-76
2022/12/30 10:55:50;;;;;;;10.20;3.40;;;7.30;99.90;;;;;;5036155;28;20519;-76
2022/12/30 10:58:27;;;;;;;11.17;3.27;;;7.30;99.90;;;;;;5054074;28;20467;-76
2022/12/30 11:00:55;;;;;;;7.47;2.90;;;7.30;99.90;;;;;;5059077;28;20444;-77
2022/12/30 11:03:36;;;;;;;6.97;2.87;;;7.30;99.90;;;;;;5075853;28;20435;-77
2022/12/30 11:06:22;;;;;;;13.30;3.33;;;7.40;99.90;;;;;;5068389;28;20473;-77
2022/12/30 11:08:51;;;;;;;8.43;3.30;;;7.40;99.90;;;;;;5081490;28;20454;-77
2022/12/30 11:14:42;;;;;;;8.70;3.20;;;7.40;99.90;;;;;;5092207;28;20513;-77
2022/12/30 11:14:42;;;;;;;9.03;3.17;;;7.40;99.90;;;;;;5097737;28;20452;-77
2022/12/30 11:17:24;;;;;;;8.77;2.77;;;7.50;99.90;;;;;;5080030;28;20467;-78
2022/12/30 11:19:56;;;;;;;10.70;3.30;;;7.50;99.90;;;;;;5067648;28;20516;-77
2022/12/30 11:22:24;;;;;;;8.23;2.33;;;7.50;99.90;;;;;;5071057;28;20430;-78
2022/12/30 11:25:03;;;;;;;7.70;2.97;;;7.60;99.90;;;;;;5060829;28;20944;-77
2022/12/30 11:27:42;;;;;;;8.30;3.10;;;7.60;99.90;;;;;;5081447;28;20446;-77
2022/12/30 11:30:24;;;;;;;8.30;3.20;;;7.60;99.90;;;;;;5074917;28;20479;-77
2022/12/30 11:32:54;;;;;;;6.93;2.63;;;7.60;99.90;;;;;;5056231;28;20792;-77
2022/12/30 11:35:35;;;;;;;8.27;3.00;;;7.60;99.90;;;;;;5056286;28;20471;-76
2022/12/30 11:38:07;;;;;;;7.20;3.00;;;7.70;99.90;;;;;;5055554;28;20492;-77
2022/12/30 11:40:37;;;;;;;6.73;2.70;;;7.70;99.90;;;;;;5073563;28;20774;-76
2022/12/30 11:43:16;;;;;;;11.90;6.70;;;7.80;99.90;;;;;;5073584;28;20435;-77
2022/12/30 11:45:57;;;;;;;8.90;4.83;;;7.80;99.90;;;;;;5058478;28;20467;-78
2022/12/30 11:48:31;;;;;;;6.90;2.93;;;7.80;99.90;;;;;;5075264;28;20478;-77
2022/12/30 11:51:03;;;;;;;7.20;2.70;;;7.90;99.90;;;;;;5073347;28;20823;-76
2022/12/30 11:53:36;;;;;;;8.30;2.80;;;7.90;99.90;;;;;;5055906;28;20459;-74
2022/12/30 11:56:04;;;;;;;7.17;3.57;;;7.90;99.90;;;;;;5077191;28;20544;-75
2022/12/30 11:58:35;;;;;;;11.47;3.57;;;8.00;99.90;;;;;;5077242;28;20474;-75
2022/12/30 12:01:07;;;;;;;6.87;3.00;;;8.00;99.90;;;;;;5077201;28;20821;-75
2022/12/30 12:03:48;;;;;;;8.43;3.10;;;8.00;99.90;;;;;;5077222;28;20509;-75
2022/12/30 12:06:18;;;;;;;8.63;3.97;;;8.00;99.90;;;;;;5058765;28;20476;-76
2022/12/30 12:08:54;;;;;;;8.13;2.70;;;8.00;99.90;;;;;;5058746;28;20434;-76
2022/12/30 12:11:28;;;;;;;6.77;2.87;;;8.00;99.90;;;;;;5076981;28;20418;-76
2022/12/30 12:14:03;;;;;;;5.87;2.63;;;8.00;99.90;;;;;;5076920;28;20779;-77
2022/12/30 12:16:37;;;;;;;7.50;2.93;;;8.00;99.90;;;;;;5076832;28;20562;-76
2022/12/30 12:19:20;;;;;;;5.43;2.57;;;8.00;99.90;;;;;;5076479;28;20454;-76
2022/12/30 12:21:53;;;;;;;7.17;2.83;;;8.00;99.90;;;;;;5076739;28;20422;-76
2022/12/30 12:24:27;;;;;;;8.43;4.37;;;8.00;99.90;;;;;;5076717;28;20416;-75
2022/12/30 12:27:01;;;;;;;6.20;2.20;;;8.10;99.90;;;;;;5058527;28;20463;-76
2022/12/30 12:29:30;;;;;;;4.90;2.53;;;8.10;99.90;;;;;;5075955;28;20523;-75
2022/12/30 12:32:22;;;;;;;7.27;2.53;;;8.10;99.90;;;;;;5076317;28;20460;-76
2022/12/30 12:35:19;;;;;;;6.10;2.67;;;8.10;99.90;;;;;;5054919;28;20524;-76
2022/12/30 12:38:03;;;;;;;5.80;2.47;;;8.10;99.90;;;;;;5076487;28;20460;-77
2022/12/30 12:40:46;;;;;;;8.60;2.73;;;8.10;99.90;;;;;;5058256;28;20451;-77
2022/12/30 12:43:20;;;;;;;7.80;2.73;;;8.10;99.90;;;;;;5058183;28;20449;-76
2022/12/30 12:46:11;;;;;;;5.50;2.53;;;8.10;99.90;;;;;;5058042;28;20501;-76
2022/12/30 12:49:05;;;;;;;6.13;2.30;;;8.10;99.90;;;;;;5076289;28;20422;-76
2022/12/30 12:51:44;;;;;;;7.00;2.83;;;8.20;99.90;;;;;;5057894;28;20487;-76
2022/12/30 12:54:44;;;;;;;6.77;2.53;;;8.20;99.90;;;;;;5057934;28;20440;-76
2022/12/30 12:57:25;;;;;;;6.80;2.20;;;8.20;99.90;;;;;;5076018;28;20416;-76
2022/12/30 13:00:08;;;;;;;7.03;3.20;;;8.20;99.90;;;;;;5075779;28;20465;-76
2022/12/30 13:03:31;;;;;;;7.47;2.73;;;8.20;99.90;;;;;;5076042;28;20425;-76
2022/12/30 13:06:10;;;;;;;8.33;2.60;;;8.20;99.90;;;;;;5050975;28;20465;-76
2022/12/30 13:08:55;;;;;;;6.70;2.90;;;8.20;99.90;;;;;;5057739;28;20516;-76
2022/12/30 13:11:33;;;;;;;7.20;2.70;;;8.20;99.90;;;;;;5075643;28;20429;-76
2022/12/30 13:14:10;;;;;;;9.97;5.47;;;8.20;99.90;;;;;;5075892;28;20423;-76
2022/12/30 13:16:42;;;;;;;5.90;2.80;;;8.20;99.90;;;;;;5075843;28;20514;-76
2022/12/30 13:19:13;;;;;;;6.40;3.30;;;8.20;99.90;;;;;;5057617;28;20474;-76
2022/12/30 13:21:43;;;;;;;7.73;2.60;;;8.20;99.90;;;;;;5057824;28;20455;-76
2022/12/30 13:24:19;;;;;;;5.30;2.60;;;8.20;99.90;;;;;;5075362;28;20783;-76
2022/12/30 13:26:50;;;;;;;5.30;2.43;;;8.20;99.90;;;;;;5057209;28;20589;-76
2022/12/30 13:29:18;;;;;;;6.63;2.87;;;8.20;99.90;;;;;;5057349;28;20490;-76
2022/12/30 13:31:54;;;;;;;6.60;2.70;;;8.20;99.90;;;;;;5075524;28;20436;-76
2022/12/30 13:34:33;;;;;;;5.60;2.77;;;8.20;99.90;;;;;;5075784;28;20430;-76
2022/12/30 13:37:07;;;;;;;7.60;4.00;;;8.20;99.90;;;;;;5075338;28;20852;-76
2022/12/30 13:39:42;;;;;;;6.40;3.50;;;8.10;99.90;;;;;;5075065;28;20469;-76
2022/12/30 13:42:50;;;;;;;7.87;3.90;;;8.10;99.90;;;;;;5057188;28;20441;-76
2022/12/30 13:45:23;;;;;;;7.80;3.87;;;8.10;99.90;;;;;;5075164;28;20474;-77
2022/12/30 13:48:06;;;;;;;6.27;3.17;;;8.10;99.90;;;;;;5075148;28;20473;-76
2022/12/30 13:50:35;;;;;;;8.27;3.10;;;8.10;99.90;;;;;;5056924;28;20877;-76
2022/12/30 13:53:05;;;;;;;5.30;2.50;;;8.10;99.90;;;;;;5056841;28;20445;-76
2022/12/30 13:55:49;;;;;;;5.80;2.47;;;8.10;99.90;;;;;;5056729;28;20504;-76
2022/12/30 13:58:24;;;;;;;7.30;3.40;;;8.10;99.90;;;;;;5074632;28;20546;-76
2022/12/30 14:01:23;;;;;;;6.37;3.80;;;8.10;99.90;;;;;;5056712;28;20487;-76
2022/12/30 14:04:12;;;;;;;6.17;3.17;;;8.10;99.90;;;;;;5074645;28;20450;-76
2022/12/30 14:06:43;;;;;;;8.90;5.00;;;8.10;99.90;;;;;;5056465;28;20476;-76
2022/12/30 14:09:18;;;;;;;10.30;6.40;;;8.10;99.90;;;;;;5074763;28;20406;-76
2022/12/30 14:12:23;;;;;;;10.23;6.10;;;8.10;99.90;;;;;;5074979;28;20428;-76
2022/12/30 14:14:53;;;;;;;9.90;5.40;;;8.10;99.90;;;;;;5056259;28;20929;-76
2022/12/30 14:17:27;;;;;;;13.40;8.80;;;8.10;99.90;;;;;;5074005;28;20481;-76
2022/12/30 14:19:59;;;;;;;8.63;6.20;;;8.10;99.90;;;;;;5056418;28;20535;-76